createdAt,value
2019-01-03T00:00:36.525Z,-2.00
2019-01-03T00:03:42.980Z,-2.29
2019-01-03T00:06:50.352Z,-2.19
2019-01-03T00:09:58.975Z,-2.16
2019-01-03T00:13:05.787Z,-2.29
2019-01-03T00:16:19.994Z,-2.20
2019-01-03T00:19:25.393Z,-2.13
2019-01-03T00:22:32.112Z,-2.27
2019-01-03T00:25:39.404Z,-2.22
2019-01-03T00:28:50.731Z,-2.12
2019-01-03T00:32:10.579Z,-1.88
2019-01-03T00:35:17.521Z,-1.94
2019-01-03T00:38:24.849Z,-2.09
2019-01-03T00:41:51.424Z,-2.07
2019-01-03T00:44:58.513Z,-2.21
2019-01-03T00:48:12.701Z,-2.19
2019-01-03T00:51:20.628Z,-2.09
2019-01-03T00:54:27.541Z,-2.06
2019-01-03T00:57:35.580Z,-2.06
2019-01-03T01:00:43.482Z,-2.12
2019-01-03T01:03:54.569Z,-1.92
2019-01-03T01:07:21.357Z,-1.75
2019-01-03T01:10:27.872Z,-1.91
2019-01-03T01:13:36.098Z,-1.90
2019-01-03T01:16:43.161Z,-1.81
2019-01-03T01:20:01.019Z,-1.96
2019-01-03T01:23:21.236Z,-1.84
2019-01-03T01:26:33.478Z,-2.01
2019-01-03T01:29:38.920Z,-2.12
2019-01-03T01:33:05.742Z,-2.05
2019-01-03T01:36:15.238Z,-1.89
2019-01-03T01:39:25.732Z,-1.62
2019-01-03T01:42:33.089Z,-1.49
2019-01-03T01:45:47.557Z,-1.73
2019-01-03T01:48:56.513Z,-1.67
2019-01-03T01:52:10.755Z,-1.54
2019-01-03T01:55:34.800Z,-1.53
2019-01-03T01:58:41.071Z,-1.60
2019-01-03T02:01:48.748Z,-1.53
2019-01-03T02:04:55.895Z,-1.42
2019-01-03T02:08:03.361Z,-1.52
2019-01-03T02:11:10.920Z,-1.42
2019-01-03T02:14:18.318Z,-1.41
2019-01-03T02:17:39.032Z,-1.62
2019-01-03T02:20:49.594Z,-1.59
2019-01-03T02:24:07.365Z,-1.47
2019-01-03T02:27:20.951Z,-1.52
2019-01-03T02:30:28.482Z,-1.57
2019-01-03T02:33:51.984Z,-1.39
2019-01-03T02:37:14.797Z,-1.34
2019-01-03T02:40:35.984Z,-1.29
2019-01-03T02:44:00.233Z,-1.16
2019-01-03T02:47:07.369Z,-1.34
2019-01-03T02:50:19.842Z,-1.24
2019-01-03T02:53:26.764Z,-1.44
2019-01-03T02:56:30.217Z,-1.33
2019-01-03T02:59:37.484Z,-1.55
2019-01-03T03:02:48.809Z,-1.48
2019-01-03T03:06:02.876Z,-1.70
2019-01-03T03:09:09.835Z,-1.63
2019-01-03T03:12:21.707Z,-1.49
2019-01-03T03:15:33.131Z,-1.51
2019-01-03T03:18:47.978Z,-1.39
2019-01-03T03:21:59.273Z,-1.54
2019-01-03T03:25:04.763Z,-1.72
2019-01-03T03:28:12.780Z,-1.77
2019-01-03T03:31:26.552Z,-1.43
2019-01-03T03:34:32.814Z,-1.34
2019-01-03T03:37:45.443Z,-1.26
2019-01-03T03:40:52.603Z,-1.32
2019-01-03T03:44:03.778Z,-1.45
2019-01-03T03:47:11.443Z,-1.66
2019-01-03T03:50:19.210Z,-1.93
2019-01-03T03:53:13.529Z,-1.95
2019-01-03T03:56:33.990Z,-2.09
2019-01-03T03:59:47.473Z,-1.85
2019-01-03T04:02:54.185Z,-1.85
2019-01-03T04:06:11.974Z,-1.80
2019-01-03T04:09:24.245Z,-2.04
2019-01-03T04:12:38.725Z,-1.74
2019-01-03T04:15:49.774Z,-0.50
2019-01-03T04:19:06.544Z,-0.78
2019-01-03T04:22:17.265Z,-0.27
2019-01-03T04:25:43.832Z,-0.71
2019-01-03T04:28:50.638Z,-1.22
2019-01-03T04:32:00.888Z,-1.21
2019-01-03T04:35:04.640Z,-1.06
2019-01-03T04:38:11.451Z,-1.07
2019-01-03T04:41:22.756Z,-1.04
2019-01-03T04:44:36.479Z,-1.09
2019-01-03T04:47:44.677Z,-0.98
2019-01-03T04:50:52.091Z,-1.11
2019-01-03T04:54:03.662Z,-1.58
2019-01-03T04:57:10.296Z,-1.31
2019-01-03T05:00:21.867Z,-0.92
2019-01-03T05:03:28.214Z,-1.03
2019-01-03T05:06:35.632Z,-1.52
2019-01-03T05:09:42.267Z,-1.53
2019-01-03T05:12:41.871Z,-1.60
2019-01-03T05:15:49.229Z,-1.84
2019-01-03T05:19:12.955Z,-1.74
2019-01-03T05:22:19.720Z,-1.79
2019-01-03T05:25:31.331Z,-1.86
2019-01-03T05:28:41.998Z,-1.93
2019-01-03T05:31:52.739Z,-2.23
2019-01-03T05:35:01.044Z,-2.31
2019-01-03T05:38:08.132Z,-2.12
2019-01-03T05:41:25.177Z,-2.23
2019-01-03T05:44:39.401Z,-2.13
2019-01-03T05:47:47.340Z,-2.31
2019-01-03T05:51:02.138Z,-2.35
2019-01-03T05:54:08.529Z,-2.27
2019-01-03T05:57:15.922Z,-2.12
2019-01-03T06:00:24.742Z,-2.13
2019-01-03T06:03:30.886Z,-1.94
2019-01-03T06:06:42.688Z,-2.05
2019-01-03T06:09:49.755Z,-2.03
2019-01-03T06:13:09.870Z,-2.18
2019-01-03T06:16:16.920Z,-1.91
2019-01-03T06:19:32.439Z,-1.74
2019-01-03T06:22:29.401Z,-1.62
2019-01-03T06:25:36.665Z,-1.45
2019-01-03T06:28:48.151Z,-1.66
2019-01-03T06:31:54.378Z,-1.72
2019-01-03T06:35:01.861Z,-1.63
2019-01-03T06:38:28.152Z,-1.55
2019-01-03T06:41:48.736Z,-1.40
2019-01-03T06:44:56.601Z,-1.23
2019-01-03T06:48:20.066Z,-1.09
2019-01-03T06:51:43.142Z,-1.04
2019-01-03T06:55:03.024Z,-1.66
2019-01-03T06:58:23.059Z,-1.89
2019-01-03T07:01:43.373Z,-2.05
2019-01-03T07:05:06.261Z,-1.87
2019-01-03T07:08:16.408Z,-1.92
2019-01-03T07:11:22.949Z,-1.63
2019-01-03T07:14:31.145Z,-1.39
2019-01-03T07:17:38.880Z,-1.27
2019-01-03T07:20:50.071Z,-1.56
2019-01-03T07:23:57.801Z,-1.43
2019-01-03T07:27:04.815Z,-1.42
2019-01-03T07:30:11.793Z,-1.51
2019-01-03T07:33:21.703Z,-1.44
2019-01-03T07:36:41.213Z,-1.75
2019-01-03T07:39:53.059Z,-1.70
2019-01-03T07:43:00.936Z,-1.52
2019-01-03T07:46:11.851Z,-1.67
2019-01-03T07:49:18.936Z,-1.25
2019-01-03T07:52:42.559Z,-1.34
2019-01-03T07:55:45.244Z,-1.56
2019-01-03T07:58:52.711Z,-1.48
2019-01-03T08:02:00.238Z,-1.34
2019-01-03T08:05:20.562Z,-1.46
2019-01-03T08:08:41.399Z,-1.51
2019-01-03T08:12:03.078Z,-1.26
2019-01-03T08:15:17.565Z,-0.91
2019-01-03T08:18:25.498Z,-0.90
2019-01-03T08:21:27.414Z,-0.98
2019-01-03T08:24:35.743Z,-1.06
2019-01-03T08:27:46.908Z,-1.03
2019-01-03T08:30:53.831Z,-1.23
2019-01-03T08:34:02.333Z,-0.93
2019-01-03T08:37:09.235Z,-0.62
2019-01-03T08:40:16.098Z,-0.73
2019-01-03T08:43:36.391Z,-0.52
2019-01-03T08:47:06.051Z,-0.30
2019-01-03T08:50:13.259Z,-0.24
2019-01-03T08:53:21.562Z,-0.53
2019-01-03T08:56:32.815Z,-0.57
2019-01-03T08:59:39.736Z,-0.28
2019-01-03T09:02:54.275Z,-0.18
2019-01-03T09:06:08.485Z,-0.07
2019-01-03T09:09:22.502Z,-0.70
2019-01-03T09:12:28.907Z,-0.33
2019-01-03T09:15:34.722Z,0.05
2019-01-03T09:18:40.925Z,0.00
2019-01-03T09:21:51.357Z,-0.03
2019-01-03T09:24:57.218Z,-0.28
2019-01-03T09:28:08.708Z,-0.29
2019-01-03T09:31:15.546Z,-0.50
2019-01-03T09:34:26.902Z,-1.02
2019-01-03T09:37:33.489Z,-0.78
2019-01-03T09:40:39.710Z,-0.39
2019-01-03T09:44:02.842Z,-0.26
2019-01-03T09:46:51.822Z,-0.60
2019-01-03T09:49:40.829Z,-0.67
2019-01-03T09:52:30.431Z,-0.51
2019-01-03T09:55:19.747Z,-0.50
2019-01-03T09:58:08.613Z,-0.43
2019-01-03T10:00:57.824Z,-0.58
2019-01-03T10:03:46.926Z,-0.29
2019-01-03T10:06:36.270Z,-0.25
2019-01-03T10:09:25.302Z,-0.11
2019-01-03T10:12:14.560Z,0.03
2019-01-03T10:15:03.974Z,0.22
2019-01-03T10:17:53.231Z,0.15
2019-01-03T10:20:42.546Z,-0.29
2019-01-03T10:23:31.693Z,-0.19
2019-01-03T10:26:20.526Z,-0.15
2019-01-03T10:29:10.625Z,0.05
2019-01-03T10:31:59.731Z,0.29
2019-01-03T10:34:48.964Z,0.31
2019-01-03T10:37:38.645Z,-0.05
2019-01-03T10:40:28.039Z,0.05
2019-01-03T10:43:17.619Z,0.02
2019-01-03T10:46:06.888Z,0.06
2019-01-03T10:48:56.163Z,0.24
2019-01-03T10:51:45.694Z,-0.26
2019-01-03T10:54:34.627Z,0.02
2019-01-03T10:57:24.990Z,0.33
2019-01-03T11:00:14.281Z,-0.04
2019-01-03T11:03:03.531Z,0.31
2019-01-03T11:05:52.646Z,-0.26
2019-01-03T11:08:41.671Z,0.00
2019-01-03T11:11:31.256Z,0.21
2019-01-03T11:14:20.627Z,0.28
2019-01-03T11:17:10.266Z,0.28
2019-01-03T11:19:59.544Z,0.43
2019-01-03T11:22:48.716Z,0.55
2019-01-03T11:25:37.961Z,0.79
2019-01-03T11:28:27.524Z,0.61
2019-01-03T11:31:16.851Z,0.57
2019-01-03T11:34:06.057Z,0.78
2019-01-03T11:36:55.610Z,0.60
2019-01-03T11:39:44.987Z,0.66
2019-01-03T11:42:33.908Z,0.82
2019-01-03T11:45:22.761Z,0.82
2019-01-03T11:48:12.645Z,0.73
2019-01-03T11:51:02.372Z,0.72
2019-01-03T11:53:51.759Z,0.90
2019-01-03T11:56:41.134Z,0.72
2019-01-03T11:59:30.030Z,0.40
2019-01-03T12:02:25.413Z,0.31
2019-01-03T12:05:10.335Z,0.56
2019-01-03T12:07:59.537Z,0.29
2019-01-03T12:10:48.932Z,0.11
2019-01-03T12:13:38.613Z,0.27
2019-01-03T12:16:27.917Z,0.55
2019-01-03T12:19:21.109Z,0.74
2019-01-03T12:22:10.349Z,1.08
2019-01-03T12:24:59.598Z,1.19
2019-01-03T12:27:48.919Z,1.24
2019-01-03T12:30:38.800Z,1.12
2019-01-03T12:33:28.150Z,0.71
2019-01-03T12:36:17.437Z,0.51
2019-01-03T12:39:07.805Z,0.72
2019-01-03T12:41:57.421Z,0.64
2019-01-03T12:44:46.697Z,0.48
2019-01-03T12:47:35.589Z,0.65
2019-01-03T12:50:08.597Z,0.70
2019-01-03T12:52:39.437Z,0.80
2019-01-03T12:55:10.326Z,0.71
2019-01-03T12:57:41.178Z,0.93
2019-01-03T13:00:31.593Z,0.83
2019-01-03T13:03:21.145Z,0.39
2019-01-03T13:06:10.021Z,0.62
2019-01-03T13:08:59.295Z,0.72
2019-01-03T13:11:49.047Z,0.57
2019-01-03T13:14:38.416Z,0.55
2019-01-03T13:17:27.717Z,0.73
2019-01-03T13:20:17.307Z,0.80
2019-01-03T13:23:06.126Z,0.72
2019-01-03T13:25:55.349Z,0.75
2019-01-03T13:28:44.979Z,0.83
2019-01-03T13:31:34.417Z,0.92
2019-01-03T13:34:23.798Z,0.92
2019-01-03T13:37:13.053Z,0.91
2019-01-03T13:40:02.336Z,0.92
2019-01-03T13:42:51.557Z,0.84
2019-01-03T13:45:41.244Z,0.94
2019-01-03T13:48:30.515Z,0.66
2019-01-03T13:51:19.877Z,0.70
2019-01-03T13:54:09.212Z,0.70
2019-01-03T13:56:58.072Z,0.63
2019-01-03T13:59:47.525Z,0.61
2019-01-03T14:02:37.696Z,0.58
2019-01-03T14:05:27.319Z,0.59
2019-01-03T14:08:16.739Z,0.39
2019-01-03T14:10:47.680Z,0.45
2019-01-03T14:13:18.609Z,0.50
2019-01-03T14:15:49.586Z,0.37
2019-01-03T14:18:20.428Z,0.31
2019-01-03T14:20:51.278Z,0.23
2019-01-03T14:23:22.163Z,0.25
2019-01-03T14:25:55.959Z,0.26
2019-01-03T14:28:26.798Z,0.22
2019-01-03T14:30:57.672Z,0.19
2019-01-03T14:33:28.557Z,0.18
2019-01-03T14:35:59.404Z,0.21
2019-01-03T14:38:30.287Z,0.05
2019-01-03T14:41:01.131Z,0.06
2019-01-03T14:43:31.979Z,-0.12
2019-01-03T14:46:02.886Z,-0.11
2019-01-03T14:48:33.753Z,-0.11
2019-01-03T14:51:04.617Z,-0.07
2019-01-03T14:53:35.514Z,-0.28
2019-01-03T14:56:06.373Z,-0.29
2019-01-03T14:58:37.290Z,-0.33
2019-01-03T15:01:08.145Z,-0.43
2019-01-03T15:03:40.144Z,-0.34
2019-01-03T15:06:11.059Z,-0.34
2019-01-03T15:08:41.916Z,-0.35
2019-01-03T15:11:12.777Z,-0.36
2019-01-03T15:13:43.687Z,-0.39
2019-01-03T15:16:14.554Z,-0.41
2019-01-03T15:18:45.448Z,-0.48
2019-01-03T15:21:16.345Z,-0.43
2019-01-03T15:23:47.217Z,-0.39
2019-01-03T15:26:18.081Z,-0.41
2019-01-03T15:28:48.985Z,-0.40
2019-01-03T15:31:20.225Z,-0.32
2019-01-03T15:33:51.104Z,-0.27
2019-01-03T15:36:22.005Z,-0.20
2019-01-03T15:38:52.873Z,-0.31
2019-01-03T15:41:23.733Z,-0.32
2019-01-03T15:43:54.651Z,-0.30
2019-01-03T15:46:25.531Z,-0.42
2019-01-03T15:48:56.658Z,-0.35
2019-01-03T15:51:27.913Z,-0.35
2019-01-03T15:53:58.760Z,-0.52
2019-01-03T15:56:29.634Z,-0.59
2019-01-03T15:59:00.568Z,-0.54
2019-01-03T16:01:31.507Z,-0.56
2019-01-03T16:04:03.333Z,-0.48
2019-01-03T16:06:34.402Z,-0.50
2019-01-03T16:09:07.011Z,-0.66
2019-01-03T16:11:37.953Z,-0.73
2019-01-03T16:14:08.848Z,-0.77
2019-01-03T16:16:39.727Z,-0.80
2019-01-03T16:19:10.601Z,-0.67
2019-01-03T16:21:41.633Z,-0.65
2019-01-03T16:24:12.540Z,-0.74
2019-01-03T16:26:43.480Z,-0.77
2019-01-03T16:29:14.730Z,-0.69
2019-01-03T16:31:51.374Z,-0.75
2019-01-03T16:34:22.402Z,-0.86
2019-01-03T16:36:53.310Z,-0.88
2019-01-03T16:39:24.304Z,-0.86
2019-01-03T16:41:55.406Z,-0.80
2019-01-03T16:44:26.308Z,-0.73
2019-01-03T16:46:57.429Z,-0.81
2019-01-03T16:49:28.544Z,-0.92
2019-01-03T16:51:59.473Z,-0.90
2019-01-03T16:54:30.544Z,-0.88
2019-01-03T16:57:01.601Z,-0.82
2019-01-03T16:59:32.543Z,-0.88
2019-01-03T17:02:03.429Z,-0.89
2019-01-03T17:04:34.574Z,-0.95
2019-01-03T17:07:05.513Z,-0.89
2019-01-03T17:09:36.696Z,-0.89
2019-01-03T17:12:07.701Z,-0.92
2019-01-03T17:14:44.691Z,-0.87
2019-01-03T17:17:15.825Z,-0.87
2019-01-03T17:19:46.718Z,-0.90
2019-01-03T17:22:21.103Z,-0.83
2019-01-03T17:24:52.101Z,-0.79
2019-01-03T17:27:22.992Z,-0.82
2019-01-03T17:29:53.986Z,-0.84
2019-01-03T17:32:25.116Z,-0.77
2019-01-03T17:34:56.000Z,-0.86
2019-01-03T17:37:26.855Z,-0.80
2019-01-03T17:39:57.863Z,-0.78
2019-01-03T17:42:29.288Z,-0.51
2019-01-03T17:45:00.190Z,-0.69
2019-01-03T17:47:35.857Z,-0.79
2019-01-03T17:50:07.686Z,-0.83
2019-01-03T17:52:38.614Z,-0.81
2019-01-03T17:55:09.701Z,-0.74
2019-01-03T17:57:40.565Z,-0.84
2019-01-03T18:00:20.723Z,-0.77
2019-01-03T18:02:52.613Z,-0.83
2019-01-03T18:05:23.703Z,-0.89
2019-01-03T18:07:54.738Z,-0.82
2019-01-03T18:10:25.701Z,-0.90
2019-01-03T18:12:56.620Z,-0.94
2019-01-03T18:15:27.869Z,-0.88
2019-01-03T18:17:59.542Z,-0.93
2019-01-03T18:20:30.463Z,-0.89
2019-01-03T18:23:01.550Z,-0.88
2019-01-03T18:25:32.599Z,-1.00
2019-01-03T18:28:03.533Z,-1.02
2019-01-03T18:30:34.843Z,-1.11
2019-01-03T18:33:05.928Z,-1.05
2019-01-03T18:35:37.560Z,-0.88
2019-01-03T18:38:09.239Z,-0.91
2019-01-03T18:40:40.360Z,-0.97
2019-01-03T18:43:30.226Z,-0.44
2019-01-03T18:46:20.029Z,0.04
2019-01-03T18:48:51.595Z,0.10
2019-01-03T18:51:25.640Z,-0.23
2019-01-03T18:54:02.958Z,-0.56
2019-01-03T18:56:34.035Z,-0.67
2019-01-03T18:59:04.987Z,-1.03
2019-01-03T19:01:36.066Z,-1.03
2019-01-03T19:04:07.154Z,-0.90
2019-01-03T19:06:42.985Z,-1.13
2019-01-03T19:09:16.843Z,-1.16
2019-01-03T19:11:49.645Z,-1.19
2019-01-03T19:14:26.136Z,-1.16
2019-01-03T19:16:57.208Z,-1.11
2019-01-03T19:19:28.319Z,-1.01
2019-01-03T19:21:59.300Z,-1.02
2019-01-03T19:24:31.759Z,-1.01
2019-01-03T19:27:03.193Z,-1.05
2019-01-03T19:29:35.558Z,-1.07
2019-01-03T19:32:07.346Z,-1.03
2019-01-03T19:34:40.252Z,-1.07
2019-01-03T19:37:12.574Z,-1.30
2019-01-03T19:39:46.405Z,-1.23
2019-01-03T19:42:21.911Z,-1.10
2019-01-03T19:44:55.999Z,-1.13
2019-01-03T19:47:27.609Z,-1.17
2019-01-03T19:50:03.206Z,-1.25
2019-01-03T19:52:35.708Z,-1.31
2019-01-03T19:55:10.591Z,-1.40
2019-01-03T19:57:42.692Z,-1.24
2019-01-03T20:00:16.563Z,-1.82
2019-01-03T20:02:48.281Z,-2.09
2019-01-03T20:05:20.208Z,-2.19
2019-01-03T20:07:56.334Z,-2.26
2019-01-03T20:10:27.892Z,-2.27
2019-01-03T20:13:01.438Z,-2.38
2019-01-03T20:15:33.484Z,-2.30
2019-01-03T20:18:04.975Z,-2.54
2019-01-03T20:20:36.563Z,-2.61
2019-01-03T20:23:07.735Z,-2.76
2019-01-03T20:25:39.702Z,-2.76
2019-01-03T20:28:10.924Z,-2.90
2019-01-03T20:30:42.046Z,-2.86
2019-01-03T20:33:13.138Z,-3.14
2019-01-03T20:35:44.091Z,-3.21
2019-01-03T20:38:15.127Z,-3.30
2019-01-03T20:40:46.281Z,-3.33
2019-01-03T20:43:17.278Z,-3.09
2019-01-03T20:45:48.594Z,-3.10
2019-01-03T20:48:19.379Z,-3.16
2019-01-03T20:50:50.557Z,-2.98
2019-01-03T20:53:21.678Z,-2.96
2019-01-03T20:55:52.781Z,-3.11
2019-01-03T20:58:24.021Z,-3.21
2019-01-03T21:01:13.456Z,-3.16
2019-01-03T21:04:02.720Z,-3.49
2019-01-03T21:06:51.799Z,-3.44
2019-01-03T21:09:41.230Z,-3.43
2019-01-03T21:12:30.584Z,-3.63
2019-01-03T21:15:20.724Z,-3.55
2019-01-03T21:18:09.658Z,-3.55
2019-01-03T21:20:58.906Z,-3.57
2019-01-03T21:23:48.060Z,-3.68
2019-01-03T21:26:37.692Z,-3.94
2019-01-03T21:29:27.094Z,-3.93
2019-01-03T21:32:16.567Z,-3.71
2019-01-03T21:35:06.247Z,-3.57
2019-01-03T21:37:55.361Z,-3.92
2019-01-03T21:40:44.704Z,-4.00
2019-01-03T21:43:33.980Z,-4.00
2019-01-03T21:46:23.621Z,-4.16
2019-01-03T21:49:13.037Z,-4.14
2019-01-03T21:52:02.360Z,-4.19
2019-01-03T21:54:51.919Z,-4.20
2019-01-03T21:57:41.228Z,-4.20
2019-01-03T22:00:30.532Z,-4.19
2019-01-03T22:03:20.118Z,-4.32
2019-01-03T22:06:09.457Z,-4.20
2019-01-03T22:08:58.534Z,-4.39
2019-01-03T22:11:48.995Z,-4.46
2019-01-03T22:14:37.766Z,-4.53
2019-01-03T22:17:27.067Z,-4.41
2019-01-03T22:20:15.877Z,-4.38
2019-01-03T22:23:05.268Z,-4.40
2019-01-03T22:25:54.417Z,-4.54
2019-01-03T22:28:44.079Z,-4.68
2019-01-03T22:31:33.616Z,-4.55
2019-01-03T22:34:22.966Z,-4.44
2019-01-03T22:37:11.878Z,-4.51
2019-01-03T22:40:01.157Z,-4.40
2019-01-03T22:42:50.268Z,-4.54
2019-01-03T22:45:39.631Z,-4.33
2019-01-03T22:48:28.881Z,-4.52
2019-01-03T22:51:20.249Z,-4.52
2019-01-03T22:54:08.673Z,-4.44
2019-01-03T22:56:58.214Z,-4.55
2019-01-03T22:59:50.385Z,-4.70
2019-01-03T23:02:39.420Z,-4.70
2019-01-03T23:05:29.239Z,-4.67
2019-01-03T23:08:18.912Z,-4.81
2019-01-03T23:11:07.828Z,-4.75
2019-01-03T23:13:57.135Z,-4.63
2019-01-03T23:16:46.472Z,-4.91
2019-01-03T23:19:35.568Z,-4.76
2019-01-03T23:22:25.041Z,-4.61
2019-01-03T23:25:14.738Z,-4.48
2019-01-03T23:28:03.711Z,-4.35
2019-01-03T23:30:52.950Z,-4.30
2019-01-03T23:33:43.453Z,-4.30
2019-01-03T23:36:32.899Z,-4.42
2019-01-03T23:39:22.577Z,-4.51
2019-01-03T23:42:11.947Z,-4.64
2019-01-03T23:45:15.696Z,-4.77
2019-01-03T23:48:04.959Z,-4.71
2019-01-03T23:50:54.062Z,-4.81
2019-01-03T23:53:43.644Z,-4.79
2019-01-03T23:56:32.969Z,-4.95
2019-01-03T23:59:22.516Z,-4.94
